createdAt,value
2022-09-12T00:01:21.210Z,70.89
2022-09-12T00:03:52.711Z,71.20
2022-09-12T00:06:34.109Z,71.57
2022-09-12T00:09:04.314Z,71.00
2022-09-12T00:11:31.407Z,71.35
2022-09-12T00:14:00.470Z,71.27
2022-09-12T00:16:29.560Z,70.96
2022-09-12T00:18:56.286Z,71.39
2022-09-12T00:21:23.578Z,71.07
2022-09-12T00:23:53.906Z,71.47
2022-09-12T00:26:23.659Z,71.61
2022-09-12T00:28:50.604Z,71.31
2022-09-12T00:31:24.213Z,71.72
2022-09-12T00:33:51.452Z,71.94
2022-09-12T00:36:21.428Z,71.24
2022-09-12T00:38:48.450Z,71.17
2022-09-12T00:41:28.783Z,71.47
2022-09-12T00:44:01.335Z,71.54
2022-09-12T00:46:40.538Z,71.07
2022-09-12T00:49:21.834Z,71.35
2022-09-12T00:52:06.462Z,71.44
2022-09-12T00:54:53.544Z,71.29
2022-09-12T00:57:25.344Z,70.96
2022-09-12T01:00:04.605Z,71.19
2022-09-12T01:02:31.334Z,71.39
2022-09-12T01:04:58.487Z,70.89
2022-09-12T01:07:25.171Z,71.53
2022-09-12T01:09:52.227Z,71.68
2022-09-12T01:12:29.546Z,71.26
2022-09-12T01:14:56.153Z,71.36
2022-09-12T01:17:29.655Z,71.40
2022-09-12T01:20:08.017Z,71.43
2022-09-12T01:23:15.471Z,71.77
2022-09-12T01:26:15.596Z,71.55
2022-09-12T01:28:56.419Z,71.89
2022-09-12T01:31:44.371Z,71.42
2022-09-12T01:34:28.309Z,71.34
2022-09-12T01:37:12.986Z,71.71
2022-09-12T01:40:02.236Z,71.51
2022-09-12T01:42:40.994Z,71.34
2022-09-12T01:45:20.547Z,71.58
2022-09-12T01:47:54.295Z,71.07
2022-09-12T01:50:38.103Z,71.43
2022-09-12T01:53:14.675Z,71.25
2022-09-12T01:55:51.414Z,71.52
2022-09-12T01:58:27.143Z,71.79
2022-09-12T02:01:09.327Z,71.56
2022-09-12T02:03:45.152Z,71.63
2022-09-12T02:06:21.024Z,71.63
2022-09-12T02:08:55.153Z,71.71
2022-09-12T02:11:22.253Z,71.61
2022-09-12T02:14:01.917Z,71.58
2022-09-12T02:16:34.628Z,71.88
2022-09-12T02:19:10.415Z,71.84
2022-09-12T02:21:42.296Z,71.40
2022-09-12T02:24:12.603Z,71.76
2022-09-12T02:26:51.038Z,71.70
2022-09-12T02:29:17.833Z,71.93
2022-09-12T02:31:50.009Z,71.98
2022-09-12T02:34:33.242Z,71.80
2022-09-12T02:37:05.997Z,71.59
2022-09-12T02:39:32.970Z,71.71
2022-09-12T02:42:01.943Z,72.19
2022-09-12T02:44:30.795Z,71.80
2022-09-12T02:47:04.899Z,71.56
2022-09-12T02:49:31.670Z,72.18
2022-09-12T02:52:00.066Z,71.68
2022-09-12T02:54:28.023Z,72.50
2022-09-12T02:56:54.703Z,72.41
2022-09-12T02:59:24.103Z,72.48
2022-09-12T03:02:15.550Z,72.42
2022-09-12T03:05:03.505Z,72.13
2022-09-12T03:07:39.966Z,72.50
2022-09-12T03:10:28.920Z,73.26
2022-09-12T03:13:20.573Z,72.77
2022-09-12T03:15:47.200Z,72.58
2022-09-12T03:18:14.650Z,72.87
2022-09-12T03:21:09.890Z,72.58
2022-09-12T03:23:36.819Z,72.57
2022-09-12T03:26:11.059Z,72.31
2022-09-12T03:28:39.616Z,72.21
2022-09-12T03:31:14.863Z,72.24
2022-09-12T03:33:41.907Z,72.51
2022-09-12T03:36:26.955Z,72.86
2022-09-12T03:38:53.691Z,73.25
2022-09-12T03:41:21.314Z,73.01
2022-09-12T03:43:48.513Z,73.14
2022-09-12T03:46:15.159Z,72.88
2022-09-12T03:48:41.993Z,72.88
2022-09-12T03:51:10.567Z,73.35
2022-09-12T03:53:37.329Z,72.91
2022-09-12T03:56:13.527Z,73.06
2022-09-12T03:58:40.715Z,72.94
2022-09-12T04:01:12.911Z,73.58
2022-09-12T04:03:48.358Z,73.49
2022-09-12T04:06:18.255Z,73.78
2022-09-12T04:08:51.581Z,73.06
2022-09-12T04:11:19.912Z,73.68
2022-09-12T04:13:47.626Z,72.96
2022-09-12T04:16:15.772Z,73.45
2022-09-12T04:18:42.698Z,73.50
2022-09-12T04:21:12.340Z,73.37
2022-09-12T04:23:39.222Z,73.91
2022-09-12T04:26:13.788Z,73.29
2022-09-12T04:28:41.395Z,73.53
2022-09-12T04:31:12.314Z,73.98
2022-09-12T04:33:39.519Z,73.63
2022-09-12T04:36:09.083Z,73.63
2022-09-12T04:38:36.866Z,73.59
2022-09-12T04:41:22.911Z,74.43
2022-09-12T04:43:54.700Z,73.88
2022-09-12T04:46:21.652Z,74.33
2022-09-12T04:48:52.281Z,74.32
2022-09-12T04:51:31.036Z,73.64
2022-09-12T04:54:06.555Z,74.09
2022-09-12T04:56:36.529Z,74.11
2022-09-12T04:59:03.375Z,74.47
2022-09-12T05:01:30.457Z,74.21
2022-09-12T05:03:58.928Z,74.34
2022-09-12T05:06:34.959Z,73.64
2022-09-12T05:09:06.606Z,74.04
2022-09-12T05:12:02.541Z,74.51
2022-09-12T05:14:25.524Z,74.13
2022-09-12T05:16:52.162Z,74.46
2022-09-12T05:19:18.814Z,74.93
2022-09-12T05:21:45.434Z,74.24
2022-09-12T05:24:12.202Z,74.27
2022-09-12T05:26:41.901Z,74.30
2022-09-12T05:29:08.503Z,74.46
2022-09-12T05:31:35.597Z,74.56
2022-09-12T05:34:06.098Z,74.63
2022-09-12T05:36:33.333Z,74.98
2022-09-12T05:39:00.567Z,74.29
2022-09-12T05:41:30.903Z,74.40
2022-09-12T05:43:59.986Z,74.66
2022-09-12T05:46:28.813Z,74.75
2022-09-12T05:48:56.779Z,74.96
2022-09-12T05:51:28.568Z,75.12
2022-09-12T05:54:00.097Z,74.79
2022-09-12T05:56:32.310Z,74.79
2022-09-12T05:59:04.792Z,75.33
2022-09-12T06:01:33.759Z,75.54
2022-09-12T06:04:03.556Z,75.14
2022-09-12T06:06:31.878Z,75.56
2022-09-12T06:09:04.208Z,75.58
2022-09-12T06:11:33.398Z,75.35
2022-09-12T06:14:03.612Z,75.77
2022-09-12T06:16:32.455Z,75.72
2022-09-12T06:19:04.786Z,75.69
2022-09-12T06:21:32.010Z,75.66
2022-09-12T06:23:59.010Z,75.98
2022-09-12T06:26:26.374Z,75.88
2022-09-12T06:28:54.893Z,76.23
2022-09-12T06:31:25.848Z,76.03
2022-09-12T06:33:56.833Z,76.32
2022-09-12T06:36:28.680Z,76.30
2022-09-12T06:38:59.454Z,76.49
2022-09-12T06:41:26.930Z,76.51
2022-09-12T06:43:57.115Z,76.67
2022-09-12T06:46:25.205Z,76.87
2022-09-12T06:48:52.178Z,76.76
2022-09-12T06:51:22.326Z,76.78
2022-09-12T06:53:50.359Z,76.73
2022-09-12T06:56:21.976Z,76.34
2022-09-12T06:58:50.558Z,76.34
2022-09-12T07:01:22.309Z,76.52
2022-09-12T07:03:55.918Z,76.21
2022-09-12T07:06:27.454Z,76.57
2022-09-12T07:08:54.022Z,76.67
2022-09-12T07:11:27.311Z,76.49
2022-09-12T07:13:56.378Z,76.97
2022-09-12T07:16:23.909Z,76.91
2022-09-12T07:18:55.475Z,76.85
2022-09-12T07:21:22.803Z,76.61
2022-09-12T07:23:53.271Z,76.90
2022-09-12T07:26:19.894Z,77.01
2022-09-12T07:28:51.578Z,77.25
2022-09-12T07:31:19.553Z,76.51
2022-09-12T07:33:48.221Z,76.34
2022-09-12T07:36:22.565Z,76.27
2022-09-12T07:38:57.241Z,75.69
2022-09-12T07:41:27.049Z,75.80
2022-09-12T07:43:58.280Z,76.02
2022-09-12T07:46:26.617Z,76.21
2022-09-12T07:48:54.970Z,76.02
2022-09-12T07:51:22.573Z,75.71
2022-09-12T07:53:49.353Z,75.71
2022-09-12T07:56:17.358Z,75.33
2022-09-12T07:58:46.557Z,75.53
2022-09-12T08:01:23.189Z,75.67
2022-09-12T08:03:55.841Z,76.17
2022-09-12T08:06:26.385Z,77.45
2022-09-12T08:08:55.103Z,77.37
2022-09-12T08:11:23.486Z,77.22
2022-09-12T08:13:55.367Z,76.38
2022-09-12T08:16:24.917Z,75.82
2022-09-12T08:18:51.776Z,74.87
2022-09-12T08:21:24.096Z,73.07
2022-09-12T08:23:56.495Z,70.97
2022-09-12T08:26:23.602Z,70.42
2022-09-12T08:28:50.802Z,69.24
2022-09-12T08:31:20.417Z,67.06
2022-09-12T08:33:47.249Z,65.88
2022-09-12T08:36:20.417Z,64.53
2022-09-12T08:38:49.127Z,63.37
2022-09-12T08:41:18.439Z,62.75
2022-09-12T08:44:09.793Z,61.57
2022-09-12T08:46:44.017Z,61.14
2022-09-12T08:49:15.037Z,60.46
2022-09-12T08:51:43.214Z,59.79
2022-09-12T08:54:29.259Z,60.00
2022-09-12T08:57:01.768Z,60.33
2022-09-12T08:59:39.774Z,60.04
2022-09-12T09:02:24.820Z,59.50
2022-09-12T09:05:22.637Z,59.24
2022-09-12T09:08:01.183Z,58.31
2022-09-12T09:10:48.967Z,58.21
2022-09-12T09:13:52.572Z,57.50
2022-09-12T09:16:32.405Z,57.12
2022-09-12T09:19:04.216Z,56.75
2022-09-12T09:21:46.862Z,56.57
2022-09-12T09:24:18.494Z,56.28
2022-09-12T09:26:56.565Z,56.03
2022-09-12T09:29:35.010Z,55.87
2022-09-12T09:32:09.649Z,55.46
2022-09-12T09:34:36.267Z,54.69
2022-09-12T09:37:20.918Z,54.34
2022-09-12T09:40:27.533Z,54.66
2022-09-12T09:43:09.199Z,54.37
2022-09-12T09:45:38.119Z,54.00
2022-09-12T09:48:10.621Z,53.85
2022-09-12T09:50:38.201Z,53.54
2022-09-12T09:53:09.323Z,53.34
2022-09-12T09:55:43.596Z,53.41
2022-09-12T09:58:10.221Z,53.48
2022-09-12T10:00:38.629Z,53.19
2022-09-12T10:03:13.987Z,53.72
2022-09-12T10:06:22.520Z,53.42
2022-09-12T10:08:50.382Z,53.75
2022-09-12T10:11:20.998Z,53.55
2022-09-12T10:13:51.475Z,53.30
2022-09-12T10:16:25.747Z,53.23
2022-09-12T10:18:53.915Z,52.78
2022-09-12T10:21:36.307Z,51.89
2022-09-12T10:24:20.458Z,51.97
2022-09-12T10:26:57.225Z,52.54
2022-09-12T10:29:33.774Z,52.73
2022-09-12T10:32:05.002Z,52.70
2022-09-12T10:34:37.852Z,52.94
2022-09-12T10:37:27.641Z,52.35
2022-09-12T10:39:57.878Z,51.79
2022-09-12T10:42:43.011Z,51.12
2022-09-12T10:45:29.859Z,51.38
2022-09-12T10:48:02.093Z,50.88
2022-09-12T10:50:42.296Z,50.84
2022-09-12T10:53:25.502Z,50.47
2022-09-12T10:56:07.922Z,50.53
2022-09-12T10:58:40.543Z,50.87
2022-09-12T11:01:36.430Z,50.16
2022-09-12T11:04:33.671Z,50.39
2022-09-12T11:07:37.055Z,50.32
2022-09-12T11:10:47.850Z,50.26
2022-09-12T11:13:14.470Z,50.01
2022-09-12T11:16:10.683Z,49.43
2022-09-12T11:18:56.141Z,48.61
2022-09-12T11:21:53.889Z,49.07
2022-09-12T11:24:35.548Z,48.90
2022-09-12T11:27:08.166Z,48.66
2022-09-12T11:29:54.987Z,49.26
2022-09-12T11:32:47.586Z,49.33
2022-09-12T11:35:29.770Z,49.68
2022-09-12T11:38:26.604Z,49.44
2022-09-12T11:41:01.340Z,49.45
2022-09-12T11:43:49.522Z,49.40
2022-09-12T11:46:34.639Z,49.77
2022-09-12T11:49:04.162Z,49.81
2022-09-12T11:51:41.211Z,49.69
2022-09-12T11:54:28.692Z,49.40
2022-09-12T11:57:39.889Z,49.51
2022-09-12T12:00:24.654Z,49.54
2022-09-12T12:03:06.640Z,49.78
2022-09-12T12:05:54.438Z,49.82
2022-09-12T12:08:23.419Z,49.34
2022-09-12T12:10:56.530Z,49.54
2022-09-12T12:13:33.914Z,49.46
2022-09-12T12:16:05.750Z,49.23
2022-09-12T12:18:35.773Z,49.06
2022-09-12T12:21:37.954Z,49.46
2022-09-12T12:24:07.645Z,49.23
2022-09-12T12:26:43.498Z,49.37
2022-09-12T12:29:22.212Z,49.78
2022-09-12T12:32:04.015Z,49.57
2022-09-12T12:34:41.810Z,49.37
2022-09-12T12:37:20.560Z,49.20
2022-09-12T12:40:01.414Z,49.29
2022-09-12T12:42:34.376Z,49.07
2022-09-12T12:45:24.269Z,48.71
2022-09-12T12:47:55.065Z,48.66
2022-09-12T12:50:32.100Z,49.14
2022-09-12T12:53:05.052Z,49.44
2022-09-12T12:55:45.561Z,49.37
2022-09-12T12:58:26.734Z,49.50
2022-09-12T13:01:07.903Z,49.59
2022-09-12T13:03:34.885Z,49.75
2022-09-12T13:06:05.500Z,49.64
2022-09-12T13:08:35.486Z,49.22
2022-09-12T13:11:02.188Z,48.73
2022-09-12T13:14:01.607Z,49.10
2022-09-12T13:16:37.756Z,49.26
2022-09-12T13:19:18.005Z,49.03
2022-09-12T13:22:07.724Z,49.30
2022-09-12T13:24:43.807Z,49.46
2022-09-12T13:27:22.954Z,49.59
2022-09-12T13:29:50.373Z,49.27
2022-09-12T13:32:18.425Z,48.99
2022-09-12T13:35:14.065Z,49.14
2022-09-12T13:37:51.415Z,48.77
2022-09-12T13:40:33.890Z,49.12
2022-09-12T13:43:17.754Z,49.27
2022-09-12T13:45:46.761Z,49.50
2022-09-12T13:48:18.236Z,49.42
2022-09-12T13:50:54.927Z,49.51
2022-09-12T13:53:25.946Z,49.66
2022-09-12T13:56:03.869Z,49.58
2022-09-12T13:58:33.315Z,49.51
2022-09-12T14:01:20.610Z,49.55
2022-09-12T14:04:12.930Z,49.54
2022-09-12T14:06:51.759Z,49.25
2022-09-12T14:09:38.588Z,49.29
2022-09-12T14:12:25.262Z,49.59
2022-09-12T14:14:53.068Z,49.81
2022-09-12T14:17:30.458Z,49.45
2022-09-12T14:20:03.965Z,49.25
2022-09-12T14:22:32.567Z,49.33
2022-09-12T14:25:00.182Z,49.69
2022-09-12T14:27:43.165Z,49.80
2022-09-12T14:30:42.066Z,50.06
2022-09-12T14:33:12.854Z,49.98
2022-09-12T14:35:43.525Z,49.96
2022-09-12T14:38:18.373Z,50.01
2022-09-12T14:40:48.752Z,50.15
2022-09-12T14:43:26.738Z,50.20
2022-09-12T14:46:10.446Z,50.19
2022-09-12T14:48:50.582Z,50.30
2022-09-12T14:51:25.106Z,50.40
2022-09-12T14:53:51.793Z,50.52
2022-09-12T14:56:24.320Z,50.61
2022-09-12T14:59:28.439Z,50.65
2022-09-12T15:02:16.515Z,50.99
2022-09-12T15:05:00.463Z,50.85
2022-09-12T15:08:04.814Z,50.92
2022-09-12T15:10:37.073Z,51.09
2022-09-12T15:13:09.683Z,51.14
2022-09-12T15:15:41.420Z,51.39
2022-09-12T15:18:13.734Z,51.50
2022-09-12T15:20:45.460Z,51.64
2022-09-12T15:23:20.779Z,51.89
2022-09-12T15:25:47.606Z,51.86
2022-09-12T15:28:20.035Z,51.63
2022-09-12T15:30:50.130Z,51.66
2022-09-12T15:33:22.856Z,51.53
2022-09-12T15:35:50.353Z,51.77
2022-09-12T15:38:17.186Z,51.94
2022-09-12T15:40:43.821Z,52.06
2022-09-12T15:43:13.853Z,51.96
2022-09-12T15:45:49.899Z,52.12
2022-09-12T15:48:16.477Z,52.49
2022-09-12T15:50:43.187Z,52.58
2022-09-12T15:53:18.576Z,52.47
2022-09-12T15:55:45.777Z,52.58
2022-09-12T15:58:13.097Z,52.79
2022-09-12T16:00:39.714Z,52.96
2022-09-12T16:03:07.043Z,52.95
2022-09-12T16:05:34.407Z,53.06
2022-09-12T16:08:01.226Z,53.22
2022-09-12T16:10:30.418Z,53.33
2022-09-12T16:12:57.893Z,53.63
2022-09-12T16:15:25.873Z,53.72
2022-09-12T16:17:52.870Z,53.87
2022-09-12T16:20:20.870Z,53.89
2022-09-12T16:22:47.829Z,54.11
2022-09-12T16:25:14.588Z,54.29
2022-09-12T16:27:41.807Z,54.31
2022-09-12T16:30:09.648Z,54.47
2022-09-12T16:32:36.522Z,54.68
2022-09-12T16:35:03.396Z,54.88
2022-09-12T16:37:31.582Z,54.89
2022-09-12T16:39:58.367Z,55.17
2022-09-12T16:42:25.003Z,55.31
2022-09-12T16:44:52.003Z,55.34
2022-09-12T16:47:18.638Z,55.60
2022-09-12T16:49:45.255Z,55.74
2022-09-12T16:52:14.251Z,55.85
2022-09-12T16:54:40.899Z,56.22
2022-09-12T16:57:07.485Z,56.22
2022-09-12T16:59:34.118Z,56.43
2022-09-12T17:02:00.777Z,56.67
2022-09-12T17:04:27.554Z,56.78
2022-09-12T17:06:54.507Z,57.06
2022-09-12T17:09:22.077Z,57.26
2022-09-12T17:11:50.247Z,57.30
2022-09-12T17:14:16.946Z,57.29
2022-09-12T17:16:50.887Z,57.56
2022-09-12T17:19:33.059Z,57.95
2022-09-12T17:21:59.935Z,57.96
2022-09-12T17:24:26.796Z,58.38
2022-09-12T17:26:53.772Z,58.34
2022-09-12T17:29:20.781Z,58.58
2022-09-12T17:31:47.658Z,58.81
2022-09-12T17:34:15.244Z,59.28
2022-09-12T17:36:44.598Z,59.05
2022-09-12T17:39:12.932Z,59.35
2022-09-12T17:41:41.857Z,59.35
2022-09-12T17:44:11.730Z,59.91
2022-09-12T17:46:38.789Z,60.16
2022-09-12T17:49:20.967Z,59.95
2022-09-12T17:51:48.659Z,60.21
2022-09-12T17:54:18.852Z,60.36
2022-09-12T17:56:49.909Z,60.37
2022-09-12T17:59:21.727Z,60.52
2022-09-12T18:02:07.052Z,60.65
2022-09-12T18:04:37.506Z,60.80
2022-09-12T18:07:04.366Z,60.91
2022-09-12T18:09:31.035Z,61.18
2022-09-12T18:11:58.524Z,61.11
2022-09-12T18:14:27.699Z,61.44
2022-09-12T18:16:57.116Z,61.56
2022-09-12T18:19:24.313Z,61.71
2022-09-12T18:21:51.049Z,61.80
2022-09-12T18:24:18.469Z,61.82
2022-09-12T18:26:45.390Z,62.10
2022-09-12T18:29:13.247Z,62.15
2022-09-12T18:31:39.897Z,62.29
2022-09-12T18:34:07.886Z,62.46
2022-09-12T18:36:34.506Z,62.56
2022-09-12T18:39:01.144Z,62.65
2022-09-12T18:41:29.038Z,62.84
2022-09-12T18:44:00.847Z,62.88
2022-09-12T18:46:29.695Z,63.04
2022-09-12T18:49:00.279Z,63.15
2022-09-12T18:51:33.682Z,63.50
2022-09-12T18:54:03.462Z,63.58
2022-09-12T18:56:35.083Z,63.95
2022-09-12T18:59:04.260Z,63.87
2022-09-12T19:01:37.761Z,64.06
2022-09-12T19:04:06.258Z,64.38
2022-09-12T19:06:36.511Z,64.63
2022-09-12T19:09:07.787Z,64.72
2022-09-12T19:11:39.558Z,64.80
2022-09-12T19:14:07.658Z,64.68
2022-09-12T19:16:34.834Z,64.92
2022-09-12T19:19:02.687Z,65.17
2022-09-12T19:21:31.140Z,65.10
2022-09-12T19:24:01.074Z,65.37
2022-09-12T19:26:27.929Z,65.51
2022-09-12T19:28:56.117Z,65.74
2022-09-12T19:31:24.408Z,65.75
2022-09-12T19:33:54.659Z,65.86
2022-09-12T19:36:43.692Z,66.08
2022-09-12T19:39:09.559Z,66.08
2022-09-12T19:41:36.520Z,66.18
2022-09-12T19:44:04.507Z,66.51
2022-09-12T19:46:31.361Z,66.68
2022-09-12T19:48:58.058Z,66.95
2022-09-12T19:51:24.711Z,67.09
2022-09-12T19:53:52.150Z,67.00
2022-09-12T19:56:19.266Z,67.16
2022-09-12T19:58:50.901Z,67.15
2022-09-12T20:01:25.023Z,67.22
2022-09-12T20:03:54.951Z,66.79
2022-09-12T20:06:21.782Z,67.30
2022-09-12T20:08:48.555Z,67.63
2022-09-12T20:11:17.943Z,67.88
2022-09-12T20:13:45.744Z,67.80
2022-09-12T20:16:33.548Z,67.71
2022-09-12T20:19:07.090Z,67.89
2022-09-12T20:21:36.114Z,68.09
2022-09-12T20:24:03.056Z,67.95
2022-09-12T20:26:30.189Z,68.26
2022-09-12T20:28:56.927Z,68.32
2022-09-12T20:31:24.519Z,68.32
2022-09-12T20:33:52.141Z,68.48
2022-09-12T20:36:20.872Z,68.59
2022-09-12T20:38:50.394Z,68.47
2022-09-12T20:41:17.849Z,68.68
2022-09-12T20:43:44.495Z,68.74
2022-09-12T20:46:11.528Z,68.86
2022-09-12T20:48:39.052Z,68.96
2022-09-12T20:51:06.581Z,69.03
2022-09-12T20:53:35.258Z,69.18
2022-09-12T20:56:03.182Z,69.34
2022-09-12T20:58:29.862Z,69.03
2022-09-12T21:00:56.940Z,69.09
2022-09-12T21:03:23.603Z,69.37
2022-09-12T21:05:50.187Z,69.46
2022-09-12T21:08:17.204Z,69.24
2022-09-12T21:10:44.570Z,69.62
2022-09-12T21:13:12.202Z,69.52
2022-09-12T21:15:40.207Z,69.64
2022-09-12T21:18:07.544Z,69.60
2022-09-12T21:20:34.504Z,69.60
2022-09-12T21:23:01.190Z,69.65
2022-09-12T21:25:29.130Z,69.90
2022-09-12T21:27:55.758Z,69.84
2022-09-12T21:30:22.465Z,69.88
2022-09-12T21:32:49.178Z,70.26
2022-09-12T21:35:16.040Z,70.19
2022-09-12T21:37:42.670Z,70.17
2022-09-12T21:40:09.622Z,70.39
2022-09-12T21:42:36.270Z,70.48
2022-09-12T21:45:02.989Z,70.28
2022-09-12T21:47:29.571Z,70.71
2022-09-12T21:49:56.197Z,70.45
2022-09-12T21:52:22.899Z,70.53
2022-09-12T21:54:49.482Z,70.55
2022-09-12T21:57:16.091Z,70.88
2022-09-12T21:59:42.822Z,71.06
2022-09-12T22:02:10.934Z,70.95
2022-09-12T22:04:37.630Z,71.00
2022-09-12T22:07:05.498Z,71.04
2022-09-12T22:09:32.901Z,70.89
2022-09-12T22:11:59.498Z,71.28
2022-09-12T22:14:26.248Z,71.33
2022-09-12T22:16:54.983Z,71.54
2022-09-12T22:19:24.513Z,71.18
2022-09-12T22:22:25.068Z,71.66
2022-09-12T22:25:01.141Z,71.48
2022-09-12T22:27:27.966Z,71.91
2022-09-12T22:29:57.026Z,71.88
2022-09-12T22:32:26.365Z,72.10
2022-09-12T22:34:53.081Z,72.02
2022-09-12T22:37:20.869Z,71.86
2022-09-12T22:39:50.555Z,72.11
2022-09-12T22:42:21.398Z,72.38
2022-09-12T22:44:48.007Z,72.38
2022-09-12T22:47:15.859Z,72.15
2022-09-12T22:49:42.495Z,72.24
2022-09-12T22:52:09.093Z,72.32
2022-09-12T22:54:38.580Z,72.48
2022-09-12T22:57:05.333Z,72.60
2022-09-12T22:59:31.930Z,72.62
2022-09-12T23:01:58.605Z,72.56
2022-09-12T23:04:27.990Z,72.64
2022-09-12T23:06:58.260Z,72.74
2022-09-12T23:09:24.970Z,73.06
2022-09-12T23:11:55.578Z,72.92
2022-09-12T23:14:22.166Z,73.02
2022-09-12T23:16:51.755Z,72.97
2022-09-12T23:19:18.430Z,73.26
2022-09-12T23:21:49.305Z,73.10
2022-09-12T23:24:18.381Z,73.02
2022-09-12T23:26:45.062Z,73.39
2022-09-12T23:29:14.725Z,73.16
2022-09-12T23:31:41.723Z,73.60
2022-09-12T23:34:11.144Z,73.28
2022-09-12T23:36:37.757Z,73.36
2022-09-12T23:39:07.204Z,73.38
2022-09-12T23:41:33.851Z,73.61
2022-09-12T23:44:05.325Z,73.37
2022-09-12T23:46:34.267Z,73.40
2022-09-12T23:49:00.868Z,73.30
2022-09-12T23:51:30.294Z,73.76
2022-09-12T23:53:57.387Z,73.72
2022-09-12T23:56:27.044Z,73.88
2022-09-12T23:58:53.719Z,73.81
